Time;durP1;ratioP1;P1;durP2;ratioP2;P2;SDS_P1;SDS_P2;PMS_P1;PMS_P2;Temp;Humidity;BMP_temperature;BMP_pressure;BME280_temperature;BME280_humidity;BME280_pressure;Samples;Min_cycle;Max_cycle;Signal;HPM_P1;HPM_P2
2023/11/26 00:00:33;;;;;;;;;;;1.90;99.90;;;;;;8371090;28;19925;-72
2023/11/26 00:04:34;;;;;;;;;;;1.80;99.90;;;;;;8383406;28;19990;-72
2023/11/26 00:08:36;;;;;;;;;;;1.80;99.90;;;;;;8395904;28;19925;-72
2023/11/26 00:12:38;;;;;;;;;;;1.70;99.90;;;;;;8375520;28;19932;-71
2023/11/26 00:16:39;;;;;;;;;;;1.70;99.90;;;;;;8378825;28;20245;-73
2023/11/26 00:20:41;;;;;;;;;;;1.60;99.90;;;;;;8386778;28;19924;-71
2023/11/26 00:24:43;;;;;;;;;;;1.60;99.90;;;;;;8381694;28;19932;-71
2023/11/26 00:28:45;;;;;;;;;;;1.60;99.90;;;;;;8370341;28;19932;-71
2023/11/26 00:32:46;;;;;;;;;;;1.50;99.90;;;;;;8384953;28;19932;-72
2023/11/26 00:36:48;;;;;;;;;;;1.50;99.90;;;;;;8377947;28;19924;-71
2023/11/26 00:40:50;;;;;;;;;;;1.40;99.90;;;;;;8378845;28;19925;-71
2023/11/26 00:44:51;;;;;;;;;;;1.40;99.90;;;;;;8389721;28;20284;-71
2023/11/26 00:48:53;;;;;;;;;;;1.40;99.90;;;;;;8389770;28;19931;-72
2023/11/26 00:52:55;;;;;;;;;;;1.40;99.90;;;;;;8389157;28;19924;-71
2023/11/26 00:56:56;;;;;;;;;;;1.40;99.90;;;;;;8396804;28;20065;-71
2023/11/26 01:00:58;;;;;;;;;;;1.30;99.90;;;;;;8400752;28;19924;-71
2023/11/26 01:05:00;;;;;;;;;;;1.30;99.90;;;;;;8400140;28;20440;-72
2023/11/26 01:09:03;;;;;;;;;;;1.30;99.90;;;;;;8372317;28;19932;-72
2023/11/26 01:13:06;;;;;;;;;;;1.30;99.90;;;;;;8394307;28;20009;-72
2023/11/26 01:17:08;;;;;;;;;;;1.30;99.90;;;;;;8391715;28;19924;-71
2023/11/26 01:21:10;;;;;;;;;;;1.30;99.90;;;;;;8390938;28;19924;-72
2023/11/26 01:25:11;;;;;;;;;;;1.30;99.90;;;;;;8374742;28;19932;-71
2023/11/26 01:29:13;;;;;;;;;;;1.30;99.90;;;;;;8371336;28;19924;-72
2023/11/26 01:33:16;;;;;;;;;;;1.30;99.90;;;;;;8408934;28;20338;-71
2023/11/26 01:37:18;;;;;;;;;;;1.30;99.90;;;;;;8392292;28;19933;-71
2023/11/26 01:41:20;;;;;;;;;;;1.30;99.90;;;;;;8390025;28;20363;-71
2023/11/26 01:45:21;;;;;;;;;;;1.30;99.90;;;;;;8397139;28;19978;-72
2023/11/26 01:49:24;;;;;;;;;;;1.30;99.90;;;;;;8373413;28;20209;-71
2023/11/26 01:53:25;;;;;;;;;;;1.30;99.90;;;;;;8385474;28;19925;-72
2023/11/26 01:57:27;;;;;;;;;;;1.30;99.90;;;;;;8367191;28;19933;-72
2023/11/26 02:01:30;;;;;;;;;;;1.30;99.90;;;;;;8390470;28;20390;-72
2023/11/26 02:05:32;;;;;;;;;;;1.30;99.90;;;;;;8387797;28;19933;-72
2023/11/26 02:09:34;;;;;;;;;;;1.20;99.90;;;;;;8388153;28;20018;-71
2023/11/26 02:13:42;;;;;;;;;;;1.20;99.90;;;;;;8385190;28;20265;-71
2023/11/26 02:17:44;;;;;;;;;;;1.10;99.90;;;;;;8385221;28;19928;-71
2023/11/26 02:21:46;;;;;;;;;;;1.10;99.90;;;;;;8371825;28;19939;-72
2023/11/26 02:25:48;;;;;;;;;;;1.10;99.90;;;;;;8371448;28;20308;-72
2023/11/26 02:29:49;;;;;;;;;;;1.10;99.90;;;;;;8387818;28;19978;-71
2023/11/26 02:33:51;;;;;;;;;;;1.10;99.90;;;;;;8389640;28;20407;-71
2023/11/26 02:37:56;;;;;;;;;;;1.00;99.90;;;;;;8387387;28;19942;-71
2023/11/26 02:41:58;;;;;;;;;;;1.00;99.90;;;;;;8363245;28;19924;-72
2023/11/26 02:46:01;;;;;;;;;;;1.00;99.90;;;;;;8391916;28;20456;-72
2023/11/26 02:50:04;;;;;;;;;;;1.00;99.90;;;;;;8387377;28;19935;-72
2023/11/26 02:54:06;;;;;;;;;;;1.00;99.90;;;;;;8382205;28;19928;-72
2023/11/26 02:58:11;;;;;;;;;;;1.00;99.90;;;;;;8389531;28;20367;-71
2023/11/26 03:02:14;;;;;;;;;;;1.00;99.90;;;;;;8394249;28;19968;-72
2023/11/26 03:06:15;;;;;;;;;;;1.00;99.90;;;;;;8382585;28;20420;-71
2023/11/26 03:14:38;;;;;;;;;;;1.00;99.90;;;;;;8381576;28;19932;-72
2023/11/26 03:18:39;;;;;;;;;;;1.00;99.90;;;;;;8383221;28;19924;-71
2023/11/26 03:22:42;;;;;;;;;;;1.00;99.90;;;;;;8389598;28;19935;-72
2023/11/26 03:26:43;;;;;;;;;;;1.00;99.90;;;;;;8387133;28;19924;-72
2023/11/26 03:30:46;;;;;;;;;;;1.00;99.90;;;;;;8393541;28;19924;-71
2023/11/26 03:34:48;;;;;;;;;;;1.10;99.90;;;;;;8374483;28;19979;-71
2023/11/26 03:38:50;;;;;;;;;;;1.20;99.90;;;;;;8383346;28;20010;-71
2023/11/26 03:42:52;;;;;;;;;;;1.20;99.90;;;;;;8382846;28;20501;-71
2023/11/26 03:46:54;;;;;;;;;;;1.20;99.90;;;;;;8365687;28;19935;-72
2023/11/26 03:50:55;;;;;;;;;;;1.20;99.90;;;;;;8394947;28;19929;-72
2023/11/26 03:54:57;;;;;;;;;;;1.20;99.90;;;;;;8383933;28;20354;-71
2023/11/26 03:58:59;;;;;;;;;;;1.30;99.90;;;;;;8384697;28;19925;-71
2023/11/26 04:03:01;;;;;;;;;;;1.30;99.90;;;;;;8388048;28;19928;-71
2023/11/26 04:07:03;;;;;;;;;;;1.30;99.90;;;;;;8381810;28;20326;-71
2023/11/26 04:11:05;;;;;;;;;;;1.30;99.90;;;;;;8388803;28;19928;-71
2023/11/26 04:15:06;;;;;;;;;;;1.40;99.90;;;;;;8360899;28;19955;-71
2023/11/26 04:19:08;;;;;;;;;;;1.40;99.90;;;;;;8383246;28;19924;-72
2023/11/26 04:23:10;;;;;;;;;;;1.50;99.90;;;;;;8385771;28;19928;-72
2023/11/26 04:27:12;;;;;;;;;;;1.60;99.90;;;;;;8391497;28;19924;-71
2023/11/26 04:31:13;;;;;;;;;;;1.60;99.90;;;;;;8372506;28;19929;-71
2023/11/26 04:35:15;;;;;;;;;;;1.70;99.90;;;;;;8393519;28;19978;-71
2023/11/26 04:39:17;;;;;;;;;;;1.70;99.90;;;;;;8373903;28;19993;-71
2023/11/26 04:43:18;;;;;;;;;;;1.80;99.90;;;;;;8404401;28;19967;-71
2023/11/26 04:47:20;;;;;;;;;;;1.80;99.90;;;;;;8391074;28;19935;-71
2023/11/26 04:51:22;;;;;;;;;;;1.90;99.90;;;;;;8377258;28;19928;-72
2023/11/26 04:55:24;;;;;;;;;;;1.90;99.90;;;;;;8385581;28;19933;-71
2023/11/26 04:59:26;;;;;;;;;;;1.90;99.90;;;;;;8393646;28;19978;-71
2023/11/26 05:03:27;;;;;;;;;;;1.90;99.90;;;;;;8399817;28;19939;-71
2023/11/26 05:07:29;;;;;;;;;;;2.00;99.90;;;;;;8386979;28;19931;-71
2023/11/26 05:11:31;;;;;;;;;;;2.00;99.90;;;;;;8360535;28;20393;-71
2023/11/26 05:15:33;;;;;;;;;;;2.00;99.90;;;;;;8371500;28;19935;-72
2023/11/26 05:19:34;;;;;;;;;;;2.00;99.90;;;;;;8367781;28;20008;-71
2023/11/26 05:23:36;;;;;;;;;;;2.00;99.90;;;;;;8372991;28;20036;-71
2023/11/26 05:27:38;;;;;;;;;;;2.10;99.90;;;;;;8372728;28;19966;-72
2023/11/26 05:31:39;;;;;;;;;;;2.10;99.90;;;;;;8365324;28;19935;-71
2023/11/26 05:35:41;;;;;;;;;;;2.10;99.90;;;;;;8372564;28;19931;-71
2023/11/26 05:39:43;;;;;;;;;;;2.20;99.90;;;;;;8368664;28;21144;-71
2023/11/26 05:43:45;;;;;;;;;;;2.20;99.90;;;;;;8371815;28;20393;-72
2023/11/26 05:47:46;;;;;;;;;;;2.20;99.90;;;;;;8350953;28;20020;-71
2023/11/26 05:51:48;;;;;;;;;;;2.20;99.90;;;;;;8363232;28;19924;-72
2023/11/26 05:55:50;;;;;;;;;;;2.30;99.90;;;;;;8366230;28;19924;-71
2023/11/26 05:59:52;;;;;;;;;;;2.30;99.90;;;;;;8376656;28;20291;-71
2023/11/26 06:03:54;;;;;;;;;;;2.30;99.90;;;;;;8378406;28;19925;-71
2023/11/26 06:07:56;;;;;;;;;;;2.40;99.90;;;;;;8360411;28;19947;-71
2023/11/26 06:11:58;;;;;;;;;;;2.40;99.90;;;;;;8355088;28;19976;-71
2023/11/26 06:15:59;;;;;;;;;;;2.50;99.90;;;;;;8352455;28;19933;-71
2023/11/26 06:20:02;;;;;;;;;;;2.50;99.90;;;;;;8356980;28;19935;-71
2023/11/26 06:24:04;;;;;;;;;;;2.50;99.90;;;;;;8368904;28;19925;-71
2023/11/26 06:28:06;;;;;;;;;;;2.50;99.90;;;;;;8354355;28;19933;-72
2023/11/26 06:32:08;;;;;;;;;;;2.50;99.90;;;;;;8361006;28;19924;-71
2023/11/26 06:36:15;;;;;;;;;;;2.50;99.90;;;;;;8362368;28;19929;-71
2023/11/26 06:40:17;;;;;;;;;;;2.60;99.90;;;;;;8344046;28;20284;-71
2023/11/26 06:44:20;;;;;;;;;;;2.60;99.90;;;;;;8345788;28;19931;-72
2023/11/26 06:48:22;;;;;;;;;;;2.60;99.90;;;;;;8370799;28;19931;-71
2023/11/26 06:52:23;;;;;;;;;;;2.60;99.90;;;;;;8363033;28;19925;-72
2023/11/26 06:56:25;;;;;;;;;;;2.60;99.90;;;;;;8365956;28;19936;-72
2023/11/26 07:00:29;;;;;;;;;;;2.60;99.90;;;;;;8365014;28;19936;-71
2023/11/26 07:04:31;;;;;;;;;;;2.60;99.90;;;;;;8370600;28;20376;-71
2023/11/26 07:08:34;;;;;;;;;;;2.60;99.90;;;;;;8366100;28;19928;-71
2023/11/26 07:12:35;;;;;;;;;;;2.60;99.90;;;;;;8364069;28;20277;-71
2023/11/26 07:16:37;;;;;;;;;;;2.70;99.90;;;;;;8367674;28;19924;-71
2023/11/26 07:20:40;;;;;;;;;;;2.70;99.90;;;;;;8379752;28;19928;-71
2023/11/26 07:24:42;;;;;;;;;;;2.70;99.90;;;;;;8361736;28;19925;-71
2023/11/26 07:28:50;;;;;;;;;;;2.70;99.90;;;;;;8348704;28;19924;-72
2023/11/26 07:32:52;;;;;;;;;;;2.70;99.90;;;;;;8371460;28;19940;-71
2023/11/26 07:36:53;;;;;;;;;;;2.70;99.90;;;;;;8366137;28;19929;-72
2023/11/26 07:40:55;;;;;;;;;;;2.80;99.90;;;;;;8384171;28;19936;-71
2023/11/26 07:44:57;;;;;;;;;;;2.80;99.90;;;;;;8358282;28;20288;-72
2023/11/26 07:48:59;;;;;;;;;;;2.90;99.90;;;;;;8358250;28;19971;-71
2023/11/26 07:53:00;;;;;;;;;;;3.10;99.90;;;;;;8352308;28;19925;-71
2023/11/26 07:57:03;;;;;;;;;;;3.20;99.90;;;;;;8370401;28;20388;-71
2023/11/26 08:01:05;;;;;;;;;;;3.20;99.90;;;;;;8381596;28;20360;-72
2023/11/26 08:05:08;;;;;;;;;;;3.30;99.90;;;;;;8374283;28;20368;-71
2023/11/26 08:09:10;;;;;;;;;;;3.40;99.90;;;;;;8355516;28;19983;-71
2023/11/26 08:13:12;;;;;;;;;;;3.40;99.90;;;;;;8370906;28;19928;-71
2023/11/26 08:17:18;;;;;;;;;;;3.50;99.90;;;;;;8369139;28;20303;-72
2023/11/26 08:21:22;;;;;;;;;;;3.50;99.90;;;;;;8358571;28;20126;-72
2023/11/26 08:25:28;;;;;;;;;;;3.60;99.90;;;;;;8362496;28;19932;-71
2023/11/26 08:29:29;;;;;;;;;;;3.70;99.90;;;;;;8372907;28;19981;-72
2023/11/26 08:33:37;;;;;;;;;;;3.80;99.90;;;;;;8385108;28;19924;-72
2023/11/26 08:37:44;;;;;;;;;;;3.80;99.90;;;;;;8386722;28;19962;-71
2023/11/26 08:41:47;;;;;;;;;;;3.90;99.90;;;;;;8388377;28;19925;-71
2023/11/26 08:45:48;;;;;;;;;;;3.90;99.90;;;;;;8383800;28;19935;-72
2023/11/26 08:49:51;;;;;;;;;;;3.90;99.90;;;;;;8381754;28;20335;-71
2023/11/26 08:53:52;;;;;;;;;;;4.00;99.90;;;;;;8376386;28;20357;-71
2023/11/26 08:57:54;;;;;;;;;;;4.00;99.90;;;;;;8371985;28;20299;-72
2023/11/26 09:01:56;;;;;;;;;;;4.20;99.90;;;;;;8389830;28;19928;-71
2023/11/26 09:05:57;;;;;;;;;;;4.30;99.90;;;;;;8382860;28;19924;-71
2023/11/26 09:09:59;;;;;;;;;;;4.40;99.90;;;;;;8376693;28;19939;-72
2023/11/26 09:14:01;;;;;;;;;;;4.60;99.90;;;;;;8386705;28;20725;-71
2023/11/26 09:18:04;;;;;;;;;;;4.70;99.90;;;;;;8374785;28;19967;-71
2023/11/26 09:22:06;;;;;;;;;;;4.90;99.90;;;;;;8386515;28;19940;-71
2023/11/26 09:26:12;;;;;;;;;;;5.00;99.90;;;;;;8388746;28;20338;-72
2023/11/26 09:30:14;;;;;;;;;;;5.20;99.90;;;;;;8379510;28;19928;-71
2023/11/26 09:34:15;;;;;;;;;;;5.30;99.90;;;;;;8385643;28;19970;-72
2023/11/26 09:38:17;;;;;;;;;;;5.50;99.90;;;;;;8384181;28;19928;-72
2023/11/26 09:42:22;;;;;;;;;;;5.60;99.90;;;;;;8388279;28;19925;-71
2023/11/26 09:46:25;;;;;;;;;;;5.80;99.90;;;;;;8386088;28;19978;-71
2023/11/26 09:50:28;;;;;;;;;;;5.90;99.90;;;;;;8380500;28;20482;-71
2023/11/26 09:54:31;;;;;;;;;;;6.00;99.90;;;;;;8372886;28;19924;-71
2023/11/26 09:58:39;;;;;;;;;;;6.10;99.90;;;;;;8378183;28;19937;-72
2023/11/26 10:02:41;;;;;;;;;;;6.20;99.90;;;;;;8354111;28;19929;-72
2023/11/26 10:06:48;;;;;;;;;;;6.20;99.90;;;;;;8365412;28;20300;-72
2023/11/26 10:10:52;;;;;;;;;;;6.20;99.90;;;;;;8369380;28;19924;-72
2023/11/26 10:15:06;;;;;;;;;;;6.30;99.90;;;;;;8371810;28;19975;-72
2023/11/26 10:19:20;;;;;;;;;;;6.40;99.90;;;;;;8376997;28;20763;-71
2023/11/26 10:23:25;;;;;;;;;;;6.40;99.90;;;;;;8381185;28;19931;-71
2023/11/26 10:27:27;;;;;;;;;;;6.50;99.90;;;;;;8375826;28;19924;-71
2023/11/26 10:31:28;;;;;;;;;;;6.50;99.90;;;;;;8383041;28;19986;-71
2023/11/26 10:35:49;;;;;;;;;;;6.60;99.90;;;;;;8381511;28;19933;-72
2023/11/26 10:39:56;;;;;;;;;;;6.60;99.90;;;;;;8383686;28;20023;-72
2023/11/26 10:43:57;;;;;;;;;;;6.70;99.90;;;;;;8364201;28;19954;-71
2023/11/26 10:48:08;;;;;;;;;;;6.70;99.90;;;;;;8390194;28;20305;-71
2023/11/26 10:52:28;;;;;;;;;;;6.80;99.90;;;;;;8374348;28;20386;-71
2023/11/26 10:56:35;;;;;;;;;;;6.90;99.90;;;;;;8369204;28;19932;-71
2023/11/26 11:00:37;;;;;;;;;;;7.00;99.90;;;;;;8382136;28;20338;-71
2023/11/26 11:04:39;;;;;;;;;;;7.00;99.90;;;;;;8373484;28;20343;-71
2023/11/26 11:08:41;;;;;;;;;;;7.10;99.90;;;;;;8363887;28;19947;-72
2023/11/26 11:12:48;;;;;;;;;;;7.20;99.90;;;;;;8348016;28;19932;-72
2023/11/26 11:16:50;;;;;;;;;;;7.20;99.90;;;;;;8365489;28;19932;-71
2023/11/26 11:21:01;;;;;;;;;;;7.30;99.90;;;;;;8372833;28;19935;-72
2023/11/26 11:25:06;;;;;;;;;;;7.30;99.90;;;;;;8363419;28;19931;-71
2023/11/26 11:29:28;;;;;;;;;;;7.40;99.90;;;;;;8355162;28;19925;-72
2023/11/26 11:33:29;;;;;;;;;;;7.40;99.90;;;;;;8346663;28;19936;-71
2023/11/26 11:37:51;;;;;;;;;;;7.40;99.90;;;;;;8372367;28;19950;-72
2023/11/26 11:41:56;;;;;;;;;;;7.40;99.90;;;;;;8382257;28;19931;-71
2023/11/26 11:45:59;;;;;;;;;;;7.30;99.90;;;;;;8363074;28;19932;-72
2023/11/26 11:50:01;;;;;;;;;;;7.20;99.90;;;;;;8381947;28;20015;-71
2023/11/26 11:54:09;;;;;;;;;;;7.20;99.90;;;;;;8362786;28;19931;-71
2023/11/26 11:58:14;;;;;;;;;;;7.20;99.90;;;;;;8359307;28;19925;-71
2023/11/26 12:02:16;;;;;;;;;;;7.20;99.90;;;;;;8387856;28;20429;-71
2023/11/26 12:06:21;;;;;;;;;;;7.20;99.90;;;;;;8387337;28;20291;-71
2023/11/26 12:10:23;;;;;;;;;;;7.20;99.90;;;;;;8360652;28;19963;-72
2023/11/26 12:14:24;;;;;;;;;;;7.20;99.90;;;;;;8383218;28;20299;-71
2023/11/26 12:18:26;;;;;;;;;;;7.20;99.90;;;;;;8357174;28;19943;-70
2023/11/26 12:22:28;;;;;;;;;;;7.30;99.90;;;;;;8366432;28;19928;-71
2023/11/26 12:26:33;;;;;;;;;;;7.30;99.90;;;;;;8366827;28;19972;-71
2023/11/26 12:30:38;;;;;;;;;;;7.30;99.90;;;;;;8363809;28;20415;-71
2023/11/26 12:34:40;;;;;;;;;;;7.30;99.90;;;;;;8363633;28;19924;-71
2023/11/26 12:38:43;;;;;;;;;;;7.30;99.90;;;;;;8367943;28;19939;-72
2023/11/26 12:42:44;;;;;;;;;;;7.40;99.90;;;;;;8371935;28;19925;-72
2023/11/26 12:46:46;;;;;;;;;;;7.40;99.90;;;;;;8378481;28;19977;-72
2023/11/26 12:50:49;;;;;;;;;;;7.40;99.90;;;;;;8370172;28;19931;-71
2023/11/26 12:54:50;;;;;;;;;;;7.40;99.90;;;;;;8375932;28;19932;-71
2023/11/26 12:58:59;;;;;;;;;;;7.40;99.90;;;;;;8371670;28;20015;-71
2023/11/26 13:03:04;;;;;;;;;;;7.40;99.90;;;;;;8365783;28;19929;-71
2023/11/26 13:07:06;;;;;;;;;;;7.40;99.90;;;;;;8385827;28;20348;-71
2023/11/26 13:11:18;;;;;;;;;;;7.40;99.90;;;;;;8392246;28;20285;-73
2023/11/26 13:15:20;;;;;;;;;;;7.40;99.90;;;;;;8385869;28;20412;-71
2023/11/26 13:19:23;;;;;;;;;;;7.40;99.90;;;;;;8376350;28;19999;-71
2023/11/26 13:23:24;;;;;;;;;;;7.40;99.90;;;;;;8367490;28;19929;-71
2023/11/26 13:27:26;;;;;;;;;;;7.50;99.90;;;;;;8391858;28;19976;-71
2023/11/26 13:31:28;;;;;;;;;;;7.50;99.90;;;;;;8378433;28;19925;-71
2023/11/26 13:35:30;;;;;;;;;;;7.50;99.90;;;;;;8389644;28;20308;-71
2023/11/26 13:39:32;;;;;;;;;;;7.50;99.90;;;;;;8387503;28;19932;-71
2023/11/26 13:43:33;;;;;;;;;;;7.50;99.90;;;;;;8364057;28;19936;-71
2023/11/26 13:47:35;;;;;;;;;;;7.50;99.90;;;;;;8389524;28;19981;-71
2023/11/26 13:51:37;;;;;;;;;;;7.50;99.90;;;;;;8373588;28;19936;-72
2023/11/26 13:55:39;;;;;;;;;;;7.50;99.90;;;;;;8370317;28;19974;-71
2023/11/26 13:59:41;;;;;;;;;;;7.50;99.90;;;;;;8380627;28;19924;-71
2023/11/26 14:03:43;;;;;;;;;;;7.50;99.90;;;;;;8375347;28;19994;-71
2023/11/26 14:07:45;;;;;;;;;;;7.50;99.90;;;;;;8391528;28;19986;-71
2023/11/26 14:11:47;;;;;;;;;;;7.50;99.90;;;;;;8382071;28;19932;-71
2023/11/26 14:15:51;;;;;;;;;;;7.40;99.90;;;;;;8378475;28;19933;-71
2023/11/26 14:19:57;;;;;;;;;;;7.40;99.90;;;;;;8370733;28;19943;-71
2023/11/26 14:23:58;;;;;;;;;;;7.30;99.90;;;;;;8379252;28;19933;-72
2023/11/26 14:28:00;;;;;;;;;;;7.30;99.90;;;;;;8396663;28;20002;-71
2023/11/26 14:32:02;;;;;;;;;;;7.30;99.90;;;;;;8387953;28;20178;-71
2023/11/26 14:36:06;;;;;;;;;;;7.20;99.90;;;;;;8381489;28;19932;-71
2023/11/26 14:40:12;;;;;;;;;;;7.20;99.90;;;;;;8400706;28;20299;-71
2023/11/26 14:44:14;;;;;;;;;;;7.20;99.90;;;;;;8364630;28;19924;-71
2023/11/26 14:48:17;;;;;;;;;;;7.20;99.90;;;;;;8380676;28;19978;-71
2023/11/26 14:52:18;;;;;;;;;;;7.20;99.90;;;;;;8396461;28;19928;-72
2023/11/26 14:56:20;;;;;;;;;;;7.20;99.90;;;;;;8361799;28;19928;-71
2023/11/26 15:00:22;;;;;;;;;;;7.20;99.90;;;;;;8380938;28;20288;-71
2023/11/26 15:04:24;;;;;;;;;;;7.20;99.90;;;;;;8392413;28;19975;-72
2023/11/26 15:08:25;;;;;;;;;;;7.20;99.90;;;;;;8386631;28;19932;-72
2023/11/26 15:12:27;;;;;;;;;;;7.20;99.90;;;;;;8395135;28;20372;-71
2023/11/26 15:16:29;;;;;;;;;;;7.10;99.90;;;;;;8380370;28;19925;-72
2023/11/26 15:20:30;;;;;;;;;;;7.10;99.90;;;;;;8384380;28;19924;-71
2023/11/26 15:24:37;;;;;;;;;;;7.10;99.90;;;;;;8376332;28;19966;-72
2023/11/26 15:28:39;;;;;;;;;;;7.10;99.90;;;;;;8381286;28;19928;-71
2023/11/26 15:32:41;;;;;;;;;;;7.10;99.90;;;;;;8378201;28;19928;-71
2023/11/26 15:36:43;;;;;;;;;;;7.10;99.90;;;;;;8392731;28;19932;-71
2023/11/26 15:40:46;;;;;;;;;;;7.10;99.90;;;;;;8380482;28;19975;-71
2023/11/26 15:44:48;;;;;;;;;;;7.10;99.90;;;;;;8381580;28;20515;-72
2023/11/26 15:48:50;;;;;;;;;;;7.00;99.90;;;;;;8386648;28;19946;-71
2023/11/26 15:52:51;;;;;;;;;;;7.00;99.90;;;;;;8376154;28;19925;-72
2023/11/26 15:56:54;;;;;;;;;;;7.00;99.90;;;;;;8388858;28;20386;-71
2023/11/26 16:00:56;;;;;;;;;;;6.90;99.90;;;;;;8379704;28;19982;-71
2023/11/26 16:04:59;;;;;;;;;;;6.90;99.90;;;;;;8380405;28;19928;-71
2023/11/26 16:09:01;;;;;;;;;;;6.90;99.90;;;;;;8370487;28;19932;-71
2023/11/26 16:13:03;;;;;;;;;;;6.90;99.90;;;;;;8363547;28;19928;-71
2023/11/26 16:17:05;;;;;;;;;;;6.90;99.90;;;;;;8366794;28;19978;-71
2023/11/26 16:21:17;;;;;;;;;;;6.90;99.90;;;;;;8387254;28;20375;-71
2023/11/26 16:25:19;;;;;;;;;;;6.90;99.90;;;;;;8389865;28;20275;-72
2023/11/26 16:29:21;;;;;;;;;;;6.80;99.90;;;;;;8383029;28;19924;-72
2023/11/26 16:33:38;;;;;;;;;;;6.80;99.90;;;;;;8373995;28;19978;-71
2023/11/26 16:37:40;;;;;;;;;;;6.80;99.90;;;;;;8388721;28;19924;-71
2023/11/26 16:41:41;;;;;;;;;;;6.80;99.90;;;;;;8357612;28;19952;-72
2023/11/26 16:45:43;;;;;;;;;;;6.80;99.90;;;;;;8360015;28;19929;-71
2023/11/26 16:49:45;;;;;;;;;;;6.80;99.90;;;;;;8355730;28;20372;-71
2023/11/26 16:53:46;;;;;;;;;;;6.80;99.90;;;;;;8360859;28;19940;-72
2023/11/26 16:57:49;;;;;;;;;;;6.80;99.90;;;;;;8359622;28;20320;-71
2023/11/26 17:01:51;;;;;;;;;;;6.80;99.90;;;;;;8356919;28;24219;-71
2023/11/26 17:05:54;;;;;;;;;;;6.80;99.90;;;;;;8355367;28;19929;-71
2023/11/26 17:09:56;;;;;;;;;;;6.80;99.90;;;;;;8350605;28;20000;-72
2023/11/26 17:13:58;;;;;;;;;;;6.80;99.90;;;;;;8355207;28;20015;-71
2023/11/26 17:18:00;;;;;;;;;;;6.80;99.90;;;;;;8371625;28;20261;-72
2023/11/26 17:22:01;;;;;;;;;;;6.80;99.90;;;;;;8359267;28;19924;-71
2023/11/26 17:26:03;;;;;;;;;;;6.80;99.90;;;;;;8359079;28;20522;-71
2023/11/26 17:30:05;;;;;;;;;;;6.80;99.90;;;;;;8356735;28;19924;-71
2023/11/26 17:34:08;;;;;;;;;;;6.80;99.90;;;;;;8369652;28;19932;-71
2023/11/26 17:38:11;;;;;;;;;;;6.80;99.90;;;;;;8355900;28;19929;-72
2023/11/26 17:42:13;;;;;;;;;;;6.80;99.90;;;;;;8347357;28;20287;-71
2023/11/26 17:46:14;;;;;;;;;;;6.80;99.90;;;;;;8358433;28;19932;-71
2023/11/26 17:50:16;;;;;;;;;;;6.80;99.90;;;;;;8367949;28;20395;-71
2023/11/26 17:54:18;;;;;;;;;;;6.80;99.90;;;;;;8364498;28;19970;-71
2023/11/26 17:58:19;;;;;;;;;;;6.80;99.90;;;;;;8359705;28;19960;-71
2023/11/26 18:02:21;;;;;;;;;;;6.80;99.90;;;;;;8359784;28;20391;-72
2023/11/26 18:06:23;;;;;;;;;;;6.80;99.90;;;;;;8354124;28;19960;-71
2023/11/26 18:10:25;;;;;;;;;;;6.80;99.90;;;;;;8348099;28;19940;-71
2023/11/26 18:14:27;;;;;;;;;;;6.80;99.90;;;;;;8338528;28;20395;-71
2023/11/26 18:18:30;;;;;;;;;;;6.80;99.90;;;;;;8334528;28;19935;-71
2023/11/26 18:22:31;;;;;;;;;;;6.80;99.90;;;;;;8354156;28;20039;-72
2023/11/26 18:26:33;;;;;;;;;;;6.80;99.90;;;;;;8355811;28;19960;-72
2023/11/26 18:30:35;;;;;;;;;;;6.70;99.90;;;;;;8359932;28;19928;-71
2023/11/26 18:34:38;;;;;;;;;;;6.70;99.90;;;;;;8354837;28;20298;-71
2023/11/26 18:38:39;;;;;;;;;;;6.70;99.90;;;;;;8342910;28;19982;-72
2023/11/26 18:42:45;;;;;;;;;;;6.60;99.90;;;;;;8337751;28;19990;-71
2023/11/26 18:46:47;;;;;;;;;;;6.70;99.90;;;;;;8355518;28;19956;-72
2023/11/26 18:50:51;;;;;;;;;;;6.60;99.90;;;;;;8353561;28;20032;-71
2023/11/26 18:54:55;;;;;;;;;;;6.60;99.90;;;;;;8349112;28;19936;-71
2023/11/26 18:59:01;;;;;;;;;;;6.60;99.90;;;;;;8355551;28;20310;-71
2023/11/26 19:03:04;;;;;;;;;;;6.60;99.90;;;;;;8342784;28;20323;-71
2023/11/26 19:07:06;;;;;;;;;;;6.50;99.90;;;;;;8357571;28;19931;-71
2023/11/26 19:11:09;;;;;;;;;;;6.50;99.90;;;;;;8352552;28;20372;-71
2023/11/26 19:15:10;;;;;;;;;;;6.50;99.90;;;;;;8340093;28;19940;-71
2023/11/26 19:19:12;;;;;;;;;;;6.40;99.90;;;;;;8334698;28;20423;-71
2023/11/26 19:23:14;;;;;;;;;;;6.40;99.90;;;;;;8361079;28;20346;-71
2023/11/26 19:27:15;;;;;;;;;;;6.40;99.90;;;;;;8354147;28;19932;-72
2023/11/26 19:31:18;;;;;;;;;;;6.40;99.90;;;;;;8351274;28;20016;-71
2023/11/26 19:35:19;;;;;;;;;;;6.40;99.90;;;;;;8348167;28;20012;-71
2023/11/26 19:39:21;;;;;;;;;;;6.40;99.90;;;;;;8354964;28;19956;-71
2023/11/26 19:43:23;;;;;;;;;;;6.30;99.90;;;;;;8356548;28;19924;-72
2023/11/26 19:47:25;;;;;;;;;;;6.30;99.90;;;;;;8346866;28;19986;-72
2023/11/26 19:51:29;;;;;;;;;;;6.30;99.90;;;;;;8345860;28;19986;-72
2023/11/26 19:55:31;;;;;;;;;;;6.30;99.90;;;;;;8352899;28;21124;-71
2023/11/26 19:59:33;;;;;;;;;;;6.20;99.90;;;;;;8351004;28;20079;-72
2023/11/26 20:03:35;;;;;;;;;;;6.20;99.90;;;;;;8355886;28;20310;-71
2023/11/26 20:07:36;;;;;;;;;;;6.20;99.90;;;;;;8360431;28;20440;-71
2023/11/26 20:11:38;;;;;;;;;;;6.10;99.90;;;;;;8358044;28;20261;-74
2023/11/26 20:15:40;;;;;;;;;;;6.10;99.90;;;;;;8363741;28;19943;-72
2023/11/26 20:19:41;;;;;;;;;;;6.10;99.90;;;;;;8353604;28;19929;-72
2023/11/26 20:23:43;;;;;;;;;;;6.10;99.90;;;;;;8360032;28;20011;-72
2023/11/26 20:27:45;;;;;;;;;;;6.10;99.90;;;;;;8354868;28;19932;-71
2023/11/26 20:31:46;;;;;;;;;;;6.10;99.90;;;;;;8350296;28;20396;-71
2023/11/26 20:35:48;;;;;;;;;;;6.00;99.90;;;;;;8354815;28;20083;-71
2023/11/26 20:39:50;;;;;;;;;;;6.00;99.90;;;;;;8353437;28;19975;-71
2023/11/26 20:43:52;;;;;;;;;;;6.00;99.90;;;;;;8348898;28;20386;-71
2023/11/26 20:47:54;;;;;;;;;;;6.00;99.90;;;;;;8342105;28;19963;-71
2023/11/26 20:51:55;;;;;;;;;;;6.00;99.90;;;;;;8351263;28;20665;-71
2023/11/26 20:55:57;;;;;;;;;;;6.00;99.90;;;;;;8341881;28;19932;-71
2023/11/26 20:59:59;;;;;;;;;;;6.00;99.90;;;;;;8337606;28;19983;-71
2023/11/26 21:04:01;;;;;;;;;;;6.00;99.90;;;;;;8354928;28;19936;-72
2023/11/26 21:08:02;;;;;;;;;;;6.00;99.90;;;;;;8362383;28;19925;-72
2023/11/26 21:12:04;;;;;;;;;;;6.00;99.90;;;;;;8357511;28;20384;-72
2023/11/26 21:16:06;;;;;;;;;;;6.00;99.90;;;;;;8339828;28;19928;-71
2023/11/26 21:20:08;;;;;;;;;;;6.00;99.90;;;;;;8355982;28;19929;-71
2023/11/26 21:39:26;;;;;;;;;;;5.90;99.90;;;;;;8350036;28;20471;-71
2023/11/26 21:43:28;;;;;;;;;;;5.90;99.90;;;;;;8372437;28;20001;-71
2023/11/26 21:47:30;;;;;;;;;;;5.90;99.90;;;;;;8356753;28;19947;-72
2023/11/26 21:51:32;;;;;;;;;;;5.90;99.90;;;;;;8352710;28;20626;-71
2023/11/26 21:55:33;;;;;;;;;;;5.90;99.90;;;;;;8355779;28;19974;-71
2023/11/26 21:59:36;;;;;;;;;;;5.90;99.90;;;;;;8351515;28;19974;-72
2023/11/26 22:03:37;;;;;;;;;;;5.90;99.90;;;;;;8374096;28;19928;-72
2023/11/26 22:07:39;;;;;;;;;;;5.90;99.90;;;;;;8395084;28;20295;-72
2023/11/26 22:11:41;;;;;;;;;;;5.90;99.90;;;;;;8381022;28;19925;-71
2023/11/26 22:15:42;;;;;;;;;;;5.90;99.90;;;;;;8384227;28;19928;-72
2023/11/26 22:19:44;;;;;;;;;;;5.90;99.90;;;;;;8383453;28;19928;-71
2023/11/26 22:23:46;;;;;;;;;;;5.90;99.90;;;;;;8386926;28;20297;-72
2023/11/26 22:27:48;;;;;;;;;;;5.90;99.90;;;;;;8386319;28;19932;-71
2023/11/26 22:31:50;;;;;;;;;;;5.90;99.90;;;;;;8365742;28;20296;-72
2023/11/26 22:35:52;;;;;;;;;;;5.90;99.90;;;;;;8392501;28;19947;-71
2023/11/26 22:39:55;;;;;;;;;;;5.90;99.90;;;;;;8392292;28;21381;-71
2023/11/26 22:43:57;;;;;;;;;;;5.90;99.90;;;;;;8381501;28;20406;-72
2023/11/26 22:47:59;;;;;;;;;;;5.90;99.90;;;;;;8372305;28;19974;-71
2023/11/26 22:52:01;;;;;;;;;;;5.90;99.90;;;;;;8362068;28;20307;-72
2023/11/26 22:56:03;;;;;;;;;;;5.90;99.90;;;;;;8380495;28;19924;-71
2023/11/26 23:00:16;;;;;;;;;;;5.90;99.90;;;;;;8387396;28;19971;-71
2023/11/26 23:04:18;;;;;;;;;;;5.90;99.90;;;;;;8394023;28;19924;-71
2023/11/26 23:08:20;;;;;;;;;;;5.90;99.90;;;;;;8396235;28;19939;-71
2023/11/26 23:12:22;;;;;;;;;;;5.90;99.90;;;;;;8365503;28;19925;-72
2023/11/26 23:16:23;;;;;;;;;;;5.90;99.90;;;;;;8375528;28;19932;-72
2023/11/26 23:20:25;;;;;;;;;;;5.80;99.90;;;;;;8386694;28;20283;-71
2023/11/26 23:24:27;;;;;;;;;;;5.80;99.90;;;;;;8385542;28;19940;-71
2023/11/26 23:28:28;;;;;;;;;;;5.80;99.90;;;;;;8368549;28;19947;-72
2023/11/26 23:32:30;;;;;;;;;;;5.80;99.90;;;;;;8384708;28;20288;-71
2023/11/26 23:36:32;;;;;;;;;;;5.80;99.90;;;;;;8382997;28;19975;-71
2023/11/26 23:40:34;;;;;;;;;;;5.70;99.90;;;;;;8383935;28;20372;-72
2023/11/26 23:44:35;;;;;;;;;;;5.70;99.90;;;;;;8386409;28;19932;-71
2023/11/26 23:48:38;;;;;;;;;;;5.70;99.90;;;;;;8376368;28;20414;-72
2023/11/26 23:52:40;;;;;;;;;;;5.70;99.90;;;;;;8381718;28;19924;-71
2023/11/26 23:56:42;;;;;;;;;;;5.70;99.90;;;;;;8368572;28;19931;-71
